Latest Weather Observations for Pallamana

IDS60801

Issued at 11:02 pm CDT Tuesday 3 March 2015 (issued every 30 minutes, with the page automatically refreshed every 10 minutes)

About weather observations | Map of weather stations | Latest weather observations for SA | Other Formats
Station Details ID: 024584 Name: PALLAMANA AERODROME Lat: -35.06 Lon: 139.23 Height: 45.0 m
Data from the previous 72 hours. | See also: Recent months at Pallamana
Date/Time
CDT
Temp
°C
App
Temp
°C
Dew
Point
Rel
Hum
%
Delta-T
°C
Wind Press
QNH
hPa
Press
MSL
hPa
Rain
since 9 am
mm
Dir
 
Spd
km/h
Gust
km/h
Spd
kts
Gust
kts
03/10:30pm 14.4 11.8 10.8 79 1.9 WSW 15 17 8 9 1019.5 1019.4 -
03/09:30pm 14.9 12.7 10.7 76 2.2 SW 13 15 7 8 1019.4 1019.3 -
03/09:00pm 15.7 13.6 11.0 73 2.5 SW 13 17 7 9 1019.3 1019.2 0.0
03/08:30pm 16.5 13.6 11.1 70 2.9 SSW 17 20 9 11 1019.1 1019.0 -
03/07:00pm 18.5 14.2 10.7 60 4.2 SSW 24 32 13 17 1017.9 1017.8 -
03/06:30pm 18.9 13.7 10.1 56 4.7 SSW 28 37 15 20 1017.4 1017.3 -
03/05:30pm 21.3 16.0 8.6 44 6.7 S 26 35 14 19 1017.0 1016.8 -
03/05:00pm 22.1 16.5 8.7 42 7.1 S 28 43 15 23 1016.7 1016.5 -
03/04:30pm 22.9 17.8 7.8 38 7.9 S 24 37 13 20 1016.7 1016.5 -
03/04:00pm 23.7 18.6 7.5 35 8.5 SSW 24 33 13 18 1016.6 1016.4 -
03/03:30pm 24.5 19.9 8.2 35 8.7 S 22 32 12 17 1016.8 1016.6 -
03/03:00pm 23.6 18.7 8.6 38 8.0 SSW 24 39 13 21 1017.2 1017.1 -
03/02:30pm 23.7 19.3 8.8 38 8.0 SSW 22 33 12 18 1017.4 1017.3 -
03/02:00pm 23.6 19.4 9.6 41 7.6 SSW 22 32 12 17 1017.7 1017.6 -
03/01:30pm 23.3 18.8 10.2 43 7.2 S 24 33 13 18 1017.9 1017.8 -
03/01:00pm 22.4 18.7 10.3 46 6.6 SSW 20 30 11 16 1018.0 1017.9 -
03/12:30pm 23.4 - 10.3 43 7.2 - - - - - 1018.5 1018.4 -
03/12:00pm 22.5 18.8 9.5 43 7.0 SSW 19 30 10 16 1018.9 1018.8 0.0
03/11:30am 22.1 18.5 9.9 46 6.6 S 19 30 10 16 1019.2 1019.1 0.0
03/11:00am 20.1 16.0 10.0 52 5.4 S 22 32 12 17 1019.5 1019.4 0.0
03/10:30am 19.8 15.9 9.4 51 5.5 S 20 30 11 16 1019.4 1019.3 0.0
03/10:00am 19.3 16.0 9.5 53 5.2 S 17 24 9 13 1019.2 1019.1 0.0
03/09:30am 18.6 14.9 9.3 54 4.9 S 19 24 10 13 1019.3 1019.2 0.0
03/09:00am 17.8 14.0 9.8 59 4.2 S 20 28 11 15 1019.0 1018.9 0.0
03/08:30am 16.8 14.1 11.6 71 2.8 SSW 17 20 9 11 1018.7 1018.6 0.0
03/08:00am 15.4 12.8 11.9 79 1.9 SW 17 20 9 11 1018.6 1018.5 0.0
03/07:30am 13.7 11.7 11.4 86 1.2 SW 13 17 7 9 1017.9 1017.8 0.0
03/07:00am 13.8 11.4 11.4 85 1.3 SW 15 17 8 9 1017.5 1017.4 0.0
03/06:30am 14.1 11.4 11.7 85 1.3 SW 17 20 9 11 1017.2 1017.1 0.0
03/06:00am 14.0 11.6 11.4 84 1.4 SW 15 17 8 9 1017.2 1017.1 0.0
03/05:30am 14.3 12.0 11.7 84 1.4 SW 15 19 8 10 1016.9 1016.7 0.0
03/05:00am 14.7 12.0 11.7 82 1.6 SW 17 19 9 10 1016.8 1016.6 0.0
03/04:30am 15.0 12.7 11.9 82 1.7 SW 15 17 8 9 1016.8 1016.6 0.0
03/04:00am 15.6 13.2 12.5 82 1.7 SW 17 19 9 10 1017.0 1016.8 0.0
03/03:30am 16.0 13.6 12.7 81 1.8 SSW 17 22 9 12 1016.9 1016.7 0.0
03/03:00am 16.2 14.0 13.2 82 1.7 SSW 17 20 9 11 1016.8 1016.6 0.0
03/02:30am 16.4 14.6 13.4 82 1.7 SSW 15 22 8 12 1017.0 1016.8 0.0
03/02:00am 16.7 14.6 13.5 81 1.8 SSW 17 24 9 13 1017.2 1017.1 0.0
03/01:30am 17.1 14.5 13.9 81 1.8 S 20 30 11 16 1016.9 1016.7 0.0
03/01:00am 17.4 15.3 14.6 83 1.6 SSW 19 26 10 14 1017.0 1016.8 0.0
03/12:30am 17.4 15.3 14.6 83 1.6 SSW 19 26 10 14 1017.1 1016.9 0.0
03/12:00am 17.5 16.2 14.7 83 1.6 SSW 15 22 8 12 1017.1 1016.9 0.0
 
Date/Time
CDT
Temp
°C
App
Temp
°C
Dew
Point
Rel
Hum
%
Delta-T
°C
Wind Press
QNH
hPa
Press
MSL
hPa
Rain
since 9 am
mm
Dir
 
Spd
km/h
Gust
km/h
Spd
kts
Gust
kts
02/11:30pm 17.7 15.5 14.4 81 1.9 SSW 19 24 10 13 1016.8 1016.6 0.0
02/11:00pm 18.1 15.9 14.5 79 2.1 SSW 19 24 10 13 1016.9 1016.7 0.0
02/10:30pm 19.0 15.9 12.2 64 3.8 SSW 20 28 11 15 1016.9 1016.7 0.0
02/10:00pm 19.7 15.4 12.2 62 4.2 SSW 26 35 14 19 1016.6 1016.4 0.0
02/09:30pm 20.2 15.2 11.1 56 5.0 SW 28 35 15 19 1016.4 1016.2 0.0
02/09:00pm 21.1 15.8 11.4 54 5.4 SW 30 39 16 21 1015.5 1015.3 0.0
02/08:30pm 22.4 17.5 8.4 40 7.4 SSW 24 32 13 17 1014.8 1014.6 0.0
02/08:00pm 23.4 19.3 6.2 33 8.8 SSW 17 22 9 12 1014.6 1014.4 0.0
02/07:30pm 24.1 20.3 5.6 30 9.4 SSW 15 22 8 12 1014.8 1014.6 0.0
02/07:00pm 24.8 19.8 3.7 25 10.4 S 19 28 10 15 1014.0 1013.8 0.0
02/06:30pm 25.4 20.5 2.1 22 11.2 S 17 24 9 13 1013.9 1013.7 0.0
02/06:00pm 25.8 21.2 1.8 21 11.5 S 15 24 8 13 1013.4 1013.2 0.0
02/05:30pm 26.3 22.7 2.8 22 11.5 SSE 11 15 6 8 1013.5 1013.3 0.0
02/05:00pm 26.7 23.4 2.6 21 11.8 SE 9 13 5 7 1012.9 1012.7 0.0
02/04:30pm 26.3 23.0 2.5 21 11.6 SE 9 13 5 7 1013.2 1013.0 0.0
02/04:00pm 26.6 23.5 3.4 22 11.5 SSE 9 15 5 8 1013.2 1013.0 0.0
02/03:30pm 26.7 23.5 2.9 21 11.7 ESE 9 13 5 7 1013.4 1013.2 0.0
02/03:00pm 27.1 23.5 3.0 21 11.9 ESE 11 19 6 10 1013.6 1013.4 0.0
02/02:30pm 27.0 23.3 4.2 23 11.5 NNE 13 19 7 10 1013.5 1013.3 0.0
02/02:00pm 25.6 21.9 6.1 28 10.1 NNE 15 22 8 12 1013.8 1013.6 0.0
02/01:30pm 26.0 21.2 5.6 27 10.5 NE 20 28 11 15 1014.1 1013.9 0.0
02/01:00pm 25.3 20.4 6.7 30 9.7 NNE 22 30 12 16 1014.7 1014.5 0.0
02/12:30pm 25.0 20.0 6.5 30 9.6 NNE 22 33 12 18 1015.0 1014.8 0.0
02/12:00pm 23.2 17.6 7.0 35 8.4 NNE 26 35 14 19 1015.9 1015.7 0.0
02/11:30am 22.3 17.1 7.2 37 7.8 NNE 24 33 13 18 1016.5 1016.3 0.0
02/11:00am 21.4 15.9 7.4 40 7.2 NE 26 35 14 19 1017.0 1016.8 0.0
02/10:30am 20.0 15.8 8.3 47 6.1 NNE 20 28 11 15 1017.4 1017.3 0.0
02/10:00am 18.5 14.9 8.2 51 5.3 NNE 17 22 9 12 1017.6 1017.5 0.0
02/09:30am 17.1 15.5 8.7 57 4.3 NNE 7 15 4 8 1017.6 1017.5 0.0
02/09:00am 15.6 15.2 9.8 68 3.0 NE 2 9 1 5 1017.1 1016.9 0.0
02/08:30am 14.1 13.7 11.1 82 1.6 NNE 4 7 2 4 1017.7 1017.6 0.0
02/08:00am 12.7 13.0 11.0 89 0.9 CALM 0 0 0 0 1017.4 1017.3 0.0
02/07:30am 11.9 11.2 10.1 89 0.9 SE 4 6 2 3 1017.3 1017.2 0.0
02/07:00am 12.5 11.3 10.4 87 1.1 WSW 7 9 4 5 1016.8 1016.6 0.0
02/06:30am 12.9 11.0 10.4 85 1.3 W 11 17 6 9 1016.9 1016.7 0.0
02/06:00am 12.2 11.1 10.7 90 0.8 WSW 7 9 4 5 1016.3 1016.1 0.0
02/05:30am 11.8 10.6 10.2 90 0.8 SSW 7 9 4 5 1015.7 1015.5 0.0
02/05:00am 12.1 9.4 10.4 89 0.9 WSW 15 17 8 9 1016.2 1016.0 0.0
02/04:30am 12.1 9.8 10.4 89 0.9 WSW 13 17 7 9 1016.0 1015.8 0.0
02/04:00am 12.0 9.6 10.2 89 0.9 SW 13 17 7 9 1016.1 1015.9 0.0
02/03:30am 12.5 9.5 10.6 88 1.0 WSW 17 20 9 11 1016.4 1016.2 0.0
02/03:00am 12.7 9.7 10.8 88 1.0 WSW 17 20 9 11 1016.5 1016.3 0.0
02/02:30am 12.9 9.6 10.8 87 1.1 WSW 19 24 10 13 1016.8 1016.6 0.0
02/02:00am 12.8 9.4 10.7 87 1.1 WSW 19 24 10 13 1016.9 1016.7 0.0
02/01:30am 13.1 10.1 10.8 86 1.2 WSW 17 20 9 11 1017.1 1016.9 0.0
02/01:00am 12.9 10.7 10.8 87 1.1 WSW 13 15 7 8 1017.4 1017.3 0.0
02/12:30am 13.2 10.6 10.7 85 1.3 SW 15 17 8 9 1017.5 1017.4 0.0
02/12:00am 14.0 11.2 11.2 83 1.5 SW 17 20 9 11 1017.7 1017.6 0.0
 
Date/Time
CDT
Temp
°C
App
Temp
°C
Dew
Point
Rel
Hum
%
Delta-T
°C
Wind Press
QNH
hPa
Press
MSL
hPa
Rain
since 9 am
mm
Dir
 
Spd
km/h
Gust
km/h
Spd
kts
Gust
kts
01/11:30pm 14.4 12.0 11.4 82 1.6 SW 15 17 8 9 1017.9 1017.8 0.0
01/11:00pm 14.7 12.3 11.5 81 1.7 SW 15 19 8 10 1018.2 1018.1 0.0
01/10:30pm 15.1 12.3 11.4 78 2.0 SSW 17 22 9 12 1018.4 1018.3 0.0
01/10:00pm 15.1 12.3 11.4 78 2.0 SSW 17 19 9 10 1018.5 1018.4 0.0
01/09:30pm 15.5 12.6 11.0 74 2.4 SSW 17 22 9 12 1018.3 1018.2 0.0
01/09:00pm 16.1 13.1 10.8 71 2.8 SW 17 22 9 12 1017.9 1017.8 0.0
01/08:30pm 16.8 13.5 10.8 67 3.2 SSW 19 24 10 13 1017.1 1016.9 0.0
01/08:00pm 17.4 13.5 10.7 65 3.6 SSW 22 33 12 18 1017.1 1016.9 0.0
01/07:30pm 18.3 13.6 10.7 61 4.1 SSW 26 33 14 18 1016.7 1016.5 0.0
01/07:00pm 19.3 13.4 10.4 56 4.8 SSW 32 37 17 20 1016.7 1016.5 0.0
01/06:30pm 20.2 13.6 10.0 52 5.5 SW 35 43 19 23 1016.3 1016.1 0.0
01/06:00pm 21.0 15.2 9.6 48 6.1 SSW 30 41 16 22 1016.1 1015.9 0.0
01/05:30pm 21.8 16.3 9.3 45 6.7 SSW 28 41 15 22 1016.1 1015.9 0.0
01/05:00pm 22.3 17.1 9.0 42 7.1 S 26 35 14 19 1016.1 1015.9 0.0
01/04:30pm 22.3 16.6 8.5 41 7.3 S 28 35 15 19 1015.8 1015.6 0.0
01/04:00pm 22.9 17.5 8.1 38 7.8 SSW 26 44 14 24 1016.2 1016.0 0.0
01/03:30pm 22.7 17.6 7.5 37 7.9 SSW 24 35 13 19 1016.1 1015.9 0.0
01/03:00pm 22.9 17.1 7.8 38 7.9 SSW 28 41 15 22 1016.4 1016.2 0.0
01/02:30pm 23.0 18.1 8.3 39 7.8 S 24 37 13 20 1016.6 1016.4 0.0
01/02:00pm 23.0 17.6 8.0 38 7.9 S 26 37 14 20 1016.6 1016.4 0.0
01/01:30pm 23.6 18.3 7.0 34 8.6 SSW 24 39 13 21 1016.8 1016.6 0.0
01/01:00pm 22.9 17.5 7.8 38 7.9 SSW 26 39 14 21 1017.1 1016.9 0.0
01/12:30pm 22.8 16.9 6.0 33 8.5 SSW 26 37 14 20 1017.2 1017.1 0.0
01/12:00pm 21.8 16.5 7.0 38 7.6 S 24 35 13 19 1017.4 1017.3 0.0
01/11:30am 21.6 17.0 9.5 46 6.5 S 24 35 13 19 1017.4 1017.3 0.0
01/11:00am 19.9 15.9 10.5 54 5.1 S 22 33 12 18 1017.3 1017.2 0.0
01/10:30am 19.3 14.5 10.4 56 4.8 SSW 26 33 14 18 1017.2 1017.1 0.0
01/10:00am 19.3 14.7 8.3 49 5.7 SSW 22 32 12 17 1017.0 1016.8 0.0
01/09:35am 19.4 13.7 8.4 49 5.7 S 28 46 15 25 1016.6 1016.4 0.0
01/09:30am 19.5 14.1 7.8 46 6.0 SSW 26 46 14 25 1016.4 1016.2 0.0
01/09:00am 17.6 12.3 9.8 60 4.1 SSW 28 37 15 20 1016.0 1015.8 0.2
01/08:30am 18.3 13.9 8.9 54 4.9 SSW 22 32 12 17 1015.9 1015.7 0.2
01/08:00am 17.4 13.1 7.0 50 5.2 SSW 19 26 10 14 1015.4 1015.2 0.2
01/07:30am 16.4 11.8 6.6 52 4.8 SSW 20 26 11 14 1015.1 1014.9 0.2
01/07:00am 15.8 13.1 9.0 64 3.5 SW 13 17 7 9 1014.5 1014.3 0.2
01/06:30am 14.9 11.8 7.4 61 3.7 WSW 13 15 7 8 1014.1 1013.9 0.2
01/06:00am 15.2 12.3 6.6 56 4.2 SW 11 15 6 8 1013.6 1013.4 0.2
01/05:30am 15.5 12.2 6.5 55 4.4 WSW 13 17 7 9 1013.4 1013.2 0.2
01/05:00am 14.7 10.7 6.7 58 3.9 SW 17 20 9 11 1013.1 1012.9 0.2
01/04:30am 15.5 10.4 7.5 59 4.0 SSW 24 32 13 17 1012.8 1012.6 0.2
01/04:00am 15.4 11.6 9.8 69 2.9 SW 20 26 11 14 1012.5 1012.3 0.2
01/03:30am 15.9 12.0 10.8 71 2.7 SW 22 30 12 16 1012.1 1011.9 0.2
01/03:00am 16.5 11.6 11.3 71 2.8 SW 28 39 15 21 1011.9 1011.7 0.2
01/02:30am 16.2 14.2 11.6 74 2.5 SW 13 17 7 9 1012.0 1011.8 0.2
01/02:00am 16.7 12.9 11.3 70 2.9 SW 22 28 12 15 1012.1 1011.9 0.2
01/01:30am 17.8 13.4 11.6 67 3.4 SSW 26 39 14 21 1012.1 1011.9 0.2
01/01:00am 17.1 14.1 12.6 75 2.5 SW 20 24 11 13 1012.1 1011.9 0.2
01/12:30am 16.3 14.2 12.3 77 2.2 SW 15 19 8 10 1012.0 1011.8 0.2
01/12:00am 17.2 14.1 12.3 73 2.7 SSW 20 26 11 14 1012.0 1011.8 0.2
 
Date/Time
CDT
Temp
°C
App
Temp
°C
Dew
Point
Rel
Hum
%
Delta-T
°C
Wind Press
QNH
hPa
Press
MSL
hPa
Rain
since 9 am
mm
Dir
 
Spd
km/h
Gust
km/h
Spd
kts
Gust
kts
28/11:30pm 17.8 14.4 12.6 71 2.9 SSW 22 28 12 15 1011.9 1011.7 0.2

Other Formats:

Comma delimited format used in spreadsheet applications
http://www.bom.gov.au/fwo/IDS60801/IDS60801.95818.axf

JavaScript Object Notation format (JSON) in row-major order
http://www.bom.gov.au/fwo/IDS60801/IDS60801.95818.json